createdAt,value
2023-05-20T00:01:02.637Z,1.70
2023-05-20T00:03:30.442Z,1.60
2023-05-20T00:05:58.200Z,1.90
2023-05-20T00:08:25.849Z,1.80
2023-05-20T00:10:53.512Z,1.50
2023-05-20T00:13:21.182Z,1.60
2023-05-20T00:15:48.786Z,1.60
2023-05-20T00:18:16.383Z,1.60
2023-05-20T00:20:44.002Z,1.70
2023-05-20T00:23:11.685Z,1.70
2023-05-20T00:25:39.298Z,1.80
2023-05-20T00:28:06.931Z,1.60
2023-05-20T00:30:35.223Z,1.80
2023-05-20T00:33:02.898Z,1.80
2023-05-20T00:35:30.752Z,1.70
2023-05-20T00:37:58.414Z,1.60
2023-05-20T00:40:26.227Z,1.90
2023-05-20T00:42:54.702Z,1.80
2023-05-20T00:45:22.741Z,1.60
2023-05-20T00:47:50.528Z,1.80
2023-05-20T00:50:18.285Z,1.80
2023-05-20T00:52:48.218Z,1.70
2023-05-20T00:55:16.523Z,1.70
2023-05-20T00:57:44.270Z,1.70
2023-05-20T01:00:13.617Z,1.80
2023-05-20T01:02:41.397Z,1.80
2023-05-20T01:05:09.497Z,1.70
2023-05-20T01:07:38.016Z,1.70
2023-05-20T01:10:07.146Z,1.80
2023-05-20T01:12:55.762Z,1.70
2023-05-20T01:15:27.857Z,1.70
2023-05-20T01:18:01.840Z,1.80
2023-05-20T01:20:32.527Z,1.80
2023-05-20T01:23:00.462Z,1.80
2023-05-20T01:25:28.156Z,1.60
2023-05-20T01:27:57.691Z,1.60
2023-05-20T01:30:30.726Z,1.50
2023-05-20T01:33:04.861Z,1.80
2023-05-20T01:35:33.552Z,1.70
2023-05-20T01:38:05.363Z,1.80
2023-05-20T01:40:34.256Z,1.50
2023-05-20T01:43:03.333Z,1.70
2023-05-20T01:45:31.601Z,1.70
2023-05-20T01:48:01.750Z,1.80
2023-05-20T01:50:29.654Z,1.50
2023-05-20T01:52:57.320Z,1.60
2023-05-20T01:55:25.942Z,1.70
2023-05-20T01:57:53.641Z,1.50
2023-05-20T02:00:21.748Z,1.60
2023-05-20T02:02:49.912Z,1.80
2023-05-20T02:05:17.753Z,1.90
2023-05-20T02:07:45.736Z,1.80
2023-05-20T02:10:14.069Z,1.80
2023-05-20T02:12:42.933Z,1.70
2023-05-20T02:15:10.669Z,2.00
2023-05-20T02:17:39.525Z,1.70
2023-05-20T02:20:07.923Z,1.60
2023-05-20T02:22:36.419Z,1.60
2023-05-20T02:25:05.352Z,1.80
2023-05-20T02:27:33.096Z,1.80
2023-05-20T02:30:01.379Z,1.60
2023-05-20T02:32:29.643Z,1.60
2023-05-20T02:34:57.380Z,1.70
2023-05-20T02:37:25.027Z,1.80
2023-05-20T02:39:52.669Z,1.80
2023-05-20T02:42:20.499Z,1.70
2023-05-20T02:44:48.168Z,1.80
2023-05-20T02:47:15.807Z,2.00
2023-05-20T02:49:43.694Z,1.50
2023-05-20T02:52:11.410Z,1.90
2023-05-20T02:54:39.237Z,1.60
2023-05-20T02:57:06.931Z,1.80
2023-05-20T02:59:34.673Z,1.90
2023-05-20T03:02:03.131Z,1.80
2023-05-20T03:04:31.626Z,1.60
2023-05-20T03:06:59.524Z,1.80
2023-05-20T03:09:27.224Z,1.70
2023-05-20T03:11:55.159Z,1.90
2023-05-20T03:14:22.887Z,1.60
2023-05-20T03:16:50.655Z,1.70
2023-05-20T03:19:20.071Z,1.70
2023-05-20T03:21:50.571Z,1.80
2023-05-20T03:24:18.249Z,1.40
2023-05-20T03:26:47.841Z,1.70
2023-05-20T03:29:17.876Z,1.70
2023-05-20T03:31:46.311Z,1.70
2023-05-20T03:34:14.403Z,1.70
2023-05-20T03:36:42.286Z,1.80
2023-05-20T03:39:09.984Z,1.60
2023-05-20T03:41:37.946Z,1.60
2023-05-20T03:44:05.667Z,1.80
2023-05-20T03:46:34.239Z,1.70
2023-05-20T03:49:02.466Z,1.80
2023-05-20T03:51:31.117Z,1.60
2023-05-20T03:54:04.424Z,1.90
2023-05-20T03:56:32.287Z,1.60
2023-05-20T03:58:59.973Z,1.50
2023-05-20T04:01:27.676Z,1.70
2023-05-20T04:03:55.721Z,1.80
2023-05-20T04:06:23.512Z,1.40
2023-05-20T04:08:52.765Z,1.70
2023-05-20T04:11:22.382Z,1.90
2023-05-20T04:13:50.021Z,1.60
2023-05-20T04:16:17.861Z,1.80
2023-05-20T04:18:48.156Z,1.40
2023-05-20T04:21:16.110Z,1.80
2023-05-20T04:23:44.489Z,1.70
2023-05-20T04:26:12.765Z,1.40
2023-05-20T04:28:41.944Z,1.60
2023-05-20T04:31:10.517Z,1.60
2023-05-20T04:33:39.366Z,1.70
2023-05-20T04:36:11.933Z,1.80
2023-05-20T04:38:42.102Z,1.80
2023-05-20T04:41:10.694Z,1.70
2023-05-20T04:43:40.098Z,1.70
2023-05-20T04:46:08.722Z,1.60
2023-05-20T04:48:37.058Z,1.70
2023-05-20T04:51:04.722Z,1.60
2023-05-20T04:53:33.744Z,1.60
2023-05-20T04:56:03.251Z,1.80
2023-05-20T04:58:31.660Z,1.60
2023-05-20T05:01:01.206Z,1.70
2023-05-20T05:03:28.835Z,1.40
2023-05-20T05:05:58.174Z,1.50
2023-05-20T05:08:27.002Z,1.50
2023-05-20T05:10:55.525Z,1.60
2023-05-20T05:13:23.375Z,1.60
2023-05-20T05:16:07.218Z,1.60
2023-05-20T05:21:04.366Z,1.70
2023-05-20T05:23:33.150Z,1.60
2023-05-20T05:26:01.770Z,1.40
2023-05-20T05:28:29.621Z,1.70
2023-05-20T05:30:58.372Z,1.40
2023-05-20T05:33:26.843Z,1.20
2023-05-20T05:35:58.724Z,1.70
2023-05-20T05:38:26.361Z,1.50
2023-05-20T05:40:54.145Z,1.70
2023-05-20T05:43:23.081Z,1.70
2023-05-20T05:45:51.543Z,1.40
2023-05-20T05:48:19.354Z,1.50
2023-05-20T05:50:47.221Z,1.50
2023-05-20T05:53:16.038Z,1.50
2023-05-20T05:55:48.262Z,1.60
2023-05-20T05:58:17.046Z,1.60
2023-05-20T06:00:44.817Z,1.30
2023-05-20T06:03:13.256Z,1.60
2023-05-20T06:05:45.927Z,1.40
2023-05-20T06:08:13.661Z,1.50
2023-05-20T06:10:41.330Z,1.60
2023-05-20T06:13:09.001Z,1.50
2023-05-20T06:15:36.880Z,1.50
2023-05-20T06:18:04.841Z,1.50
2023-05-20T06:20:33.627Z,1.30
2023-05-20T06:23:01.474Z,1.50
2023-05-20T06:25:37.340Z,1.50
2023-05-20T06:28:05.319Z,1.60
2023-05-20T06:30:33.884Z,1.50
2023-05-20T06:33:02.248Z,1.40
2023-05-20T06:35:29.974Z,1.40
2023-05-20T06:37:57.729Z,1.60
2023-05-20T06:40:27.186Z,1.40
2023-05-20T06:42:55.261Z,1.30
2023-05-20T06:45:43.983Z,1.50
2023-05-20T06:48:27.554Z,1.70
2023-05-20T06:50:56.996Z,1.60
2023-05-20T06:53:24.995Z,1.20
2023-05-20T06:55:56.054Z,1.60
2023-05-20T06:58:23.950Z,1.60
2023-05-20T07:00:51.770Z,1.50
2023-05-20T07:03:19.890Z,1.40
2023-05-20T07:05:48.033Z,1.50
2023-05-20T07:08:15.852Z,1.50
2023-05-20T07:10:43.760Z,1.40
2023-05-20T07:13:11.427Z,1.40
2023-05-20T07:15:39.124Z,1.30
2023-05-20T07:18:07.136Z,1.60
2023-05-20T07:20:36.179Z,1.10
2023-05-20T07:23:07.612Z,1.50
2023-05-20T07:25:42.680Z,1.40
2023-05-20T07:28:10.742Z,1.50
2023-05-20T07:30:38.847Z,1.30
2023-05-20T07:33:19.151Z,1.50
2023-05-20T07:35:46.814Z,1.30
2023-05-20T07:38:14.569Z,1.20
2023-05-20T07:40:44.047Z,1.40
2023-05-20T07:43:11.669Z,1.40
2023-05-20T07:45:39.398Z,1.40
2023-05-20T07:48:08.864Z,1.40
2023-05-20T07:50:37.074Z,1.30
2023-05-20T07:53:06.564Z,1.40
2023-05-20T07:55:38.616Z,1.50
2023-05-20T07:58:07.396Z,1.20
2023-05-20T08:00:36.282Z,1.20
2023-05-20T08:03:07.829Z,1.20
2023-05-20T08:05:56.223Z,1.20
2023-05-20T08:08:25.022Z,1.50
2023-05-20T08:11:01.676Z,1.30
2023-05-20T08:13:29.667Z,1.30
2023-05-20T08:15:57.446Z,1.20
2023-05-20T08:18:27.332Z,1.30
2023-05-20T08:20:55.010Z,1.20
2023-05-20T08:23:22.671Z,1.40
2023-05-20T08:25:50.639Z,1.50
2023-05-20T08:28:20.657Z,1.30
2023-05-20T08:30:48.680Z,1.00
2023-05-20T08:33:16.701Z,1.30
2023-05-20T08:35:44.434Z,1.40
2023-05-20T08:38:12.335Z,1.20
2023-05-20T08:40:40.638Z,1.30
2023-05-20T08:43:08.467Z,1.30
2023-05-20T08:45:38.600Z,1.30
2023-05-20T08:48:09.395Z,1.20
2023-05-20T08:50:38.852Z,1.20
2023-05-20T08:53:07.535Z,1.20
2023-05-20T08:55:43.575Z,1.30
2023-05-20T08:58:11.174Z,1.30
2023-05-20T09:00:38.802Z,1.30
2023-05-20T09:03:06.502Z,1.20
2023-05-20T09:05:34.768Z,1.30
2023-05-20T09:08:07.613Z,1.20
2023-05-20T09:10:37.038Z,1.30
2023-05-20T09:13:06.652Z,1.20
2023-05-20T09:15:35.625Z,1.10
2023-05-20T09:18:06.083Z,1.20
2023-05-20T09:20:38.063Z,1.20
2023-05-20T09:23:08.528Z,1.30
2023-05-20T09:25:37.769Z,1.20
2023-05-20T09:28:09.785Z,1.00
2023-05-20T09:30:37.486Z,1.20
2023-05-20T09:33:05.705Z,1.30
2023-05-20T09:35:38.819Z,1.10
2023-05-20T09:38:09.270Z,1.30
2023-05-20T09:40:40.351Z,1.40
2023-05-20T09:43:08.619Z,1.30
2023-05-20T09:45:38.494Z,1.40
2023-05-20T09:48:10.493Z,1.40
2023-05-20T09:50:39.172Z,1.30
2023-05-20T09:53:08.848Z,1.30
2023-05-20T09:55:38.132Z,1.20
2023-05-20T09:58:06.679Z,1.20
2023-05-20T10:00:34.424Z,1.50
2023-05-20T10:03:02.519Z,1.30
2023-05-20T10:05:38.750Z,1.30
2023-05-20T10:08:22.334Z,1.20
2023-05-20T10:11:03.087Z,1.40
2023-05-20T10:14:01.802Z,1.40
2023-05-20T10:16:51.684Z,1.60
2023-05-20T10:19:32.881Z,1.80
2023-05-20T10:22:01.797Z,1.40
2023-05-20T10:24:32.192Z,1.40
2023-05-20T10:27:03.251Z,1.50
2023-05-20T10:29:59.555Z,1.40
2023-05-20T10:32:29.781Z,1.30
2023-05-20T10:35:01.818Z,1.40
2023-05-20T10:37:33.405Z,1.30
2023-05-20T10:40:12.309Z,1.40
2023-05-20T10:42:41.248Z,1.40
2023-05-20T10:45:10.019Z,1.40
2023-05-20T10:47:53.836Z,1.30
2023-05-20T10:50:29.547Z,1.40
2023-05-20T10:53:04.517Z,1.60
2023-05-20T10:55:37.326Z,1.20
2023-05-20T10:58:06.722Z,1.60
2023-05-20T11:00:37.301Z,1.20
2023-05-20T11:03:06.385Z,1.50
2023-05-20T11:05:34.760Z,1.30
2023-05-20T11:08:16.941Z,1.30
2023-05-20T11:10:56.915Z,1.30
2023-05-20T11:13:25.858Z,1.30
2023-05-20T11:15:54.101Z,1.40
2023-05-20T11:18:21.781Z,1.50
2023-05-20T11:20:49.506Z,1.40
2023-05-20T11:23:17.229Z,1.50
2023-05-20T11:25:44.842Z,1.40
2023-05-20T11:28:17.682Z,1.30
2023-05-20T11:30:45.868Z,1.20
2023-05-20T11:33:15.701Z,1.10
2023-05-20T11:35:48.669Z,1.50
2023-05-20T11:38:16.760Z,1.80
2023-05-20T11:40:51.100Z,1.40
2023-05-20T11:43:20.556Z,1.60
2023-05-20T11:45:59.071Z,1.20
2023-05-20T11:48:27.183Z,1.30
2023-05-20T11:50:56.228Z,1.10
2023-05-20T11:53:25.140Z,1.50
2023-05-20T11:55:56.284Z,1.40
2023-05-20T11:58:29.460Z,1.50
2023-05-20T12:01:09.061Z,1.50
2023-05-20T12:03:45.621Z,1.20
2023-05-20T12:06:13.553Z,1.50
2023-05-20T12:08:41.274Z,1.30
2023-05-20T12:11:09.016Z,1.40
2023-05-20T12:13:36.655Z,1.30
2023-05-20T12:16:05.894Z,1.20
2023-05-20T12:18:34.024Z,1.50
2023-05-20T12:21:01.687Z,1.70
2023-05-20T12:23:30.678Z,1.20
2023-05-20T12:25:58.288Z,1.40
2023-05-20T12:28:25.910Z,1.30
2023-05-20T12:30:53.522Z,1.00
2023-05-20T12:33:21.263Z,0.90
2023-05-20T12:35:48.907Z,1.10
2023-05-20T12:38:16.542Z,1.10
2023-05-20T12:40:44.238Z,0.60
2023-05-20T12:43:11.854Z,0.80
2023-05-20T12:45:39.489Z,0.60
2023-05-20T12:48:07.818Z,0.40
2023-05-20T12:50:35.969Z,0.40
2023-05-20T12:53:03.810Z,0.40
2023-05-20T12:55:31.415Z,0.40
2023-05-20T12:57:59.073Z,0.80
2023-05-20T13:00:26.729Z,0.50
2023-05-20T13:02:54.652Z,0.50
2023-05-20T13:05:22.991Z,0.50
2023-05-20T13:07:50.672Z,1.10
2023-05-20T13:10:18.629Z,1.00
2023-05-20T13:12:46.368Z,1.10
2023-05-20T13:15:14.716Z,1.00
2023-05-20T13:17:42.780Z,1.00
2023-05-20T13:20:11.754Z,1.00
2023-05-20T13:22:39.488Z,1.30
2023-05-20T13:25:07.766Z,1.30
2023-05-20T13:27:35.747Z,0.90
2023-05-20T13:30:04.066Z,0.80
2023-05-20T13:32:31.762Z,1.50
2023-05-20T13:34:59.668Z,0.90
2023-05-20T13:37:27.359Z,0.80
2023-05-20T13:39:55.013Z,0.80
2023-05-20T13:42:22.706Z,0.90
2023-05-20T13:44:50.354Z,0.90
2023-05-20T13:47:18.098Z,0.90
2023-05-20T13:49:45.736Z,0.90
2023-05-20T13:52:13.610Z,0.90
2023-05-20T13:54:42.925Z,0.90
2023-05-20T13:57:10.550Z,0.90
2023-05-20T13:59:38.539Z,0.80
2023-05-20T14:02:07.374Z,0.90
2023-05-20T14:04:39.393Z,1.10
2023-05-20T14:07:09.667Z,1.20
2023-05-20T14:09:37.913Z,1.00
2023-05-20T14:12:06.173Z,0.40
2023-05-20T14:14:33.874Z,0.30
2023-05-20T14:17:01.510Z,0.40
2023-05-20T14:19:29.881Z,0.30
2023-05-20T14:22:00.927Z,0.30
2023-05-20T14:24:29.245Z,0.40
2023-05-20T14:26:56.941Z,0.40
2023-05-20T14:29:24.620Z,0.40
2023-05-20T14:31:52.319Z,0.30
2023-05-20T14:34:21.154Z,0.40
2023-05-20T14:36:48.871Z,0.40
2023-05-20T14:39:17.049Z,0.60
2023-05-20T14:41:44.754Z,0.50
2023-05-20T14:44:12.412Z,0.40
2023-05-20T14:46:40.121Z,0.40
2023-05-20T14:49:07.784Z,0.40
2023-05-20T14:51:35.401Z,0.40
2023-05-20T14:54:03.239Z,0.40
2023-05-20T14:56:31.131Z,0.40
2023-05-20T14:58:58.905Z,0.40
2023-05-20T15:01:26.566Z,0.50
2023-05-20T15:03:54.224Z,0.40
2023-05-20T15:06:22.299Z,0.50
2023-05-20T15:08:49.955Z,0.50
2023-05-20T15:11:17.587Z,0.40
2023-05-20T15:13:46.466Z,0.70
2023-05-20T15:16:14.324Z,0.50
2023-05-20T15:18:42.125Z,0.70
2023-05-20T15:21:09.938Z,1.20
2023-05-20T15:23:37.563Z,0.80
2023-05-20T15:26:05.282Z,0.90
2023-05-20T15:28:33.085Z,0.90
2023-05-20T15:31:00.901Z,0.60
2023-05-20T15:33:28.665Z,1.10
2023-05-20T15:35:56.692Z,1.10
2023-05-20T15:38:24.344Z,1.10
2023-05-20T15:40:52.017Z,0.70
2023-05-20T15:43:19.849Z,0.70
2023-05-20T15:45:48.221Z,0.30
2023-05-20T15:48:17.138Z,0.20
2023-05-20T15:50:44.898Z,0.30
2023-05-20T15:53:15.041Z,0.20
2023-05-20T15:55:43.030Z,0.30
2023-05-20T15:58:12.004Z,0.30
2023-05-20T16:00:39.716Z,0.20
2023-05-20T16:03:08.294Z,0.20
2023-05-20T16:05:36.786Z,0.20
2023-05-20T16:08:06.114Z,0.30
2023-05-20T16:10:34.516Z,0.30
2023-05-20T16:13:03.053Z,0.20
2023-05-20T16:15:36.310Z,0.30
2023-05-20T16:18:04.811Z,0.30
2023-05-20T16:20:32.713Z,0.30
2023-05-20T16:23:02.681Z,0.20
2023-05-20T16:25:30.960Z,0.40
2023-05-20T16:28:00.850Z,0.60
2023-05-20T16:30:28.455Z,0.40
2023-05-20T16:32:56.579Z,0.40
2023-05-20T16:35:24.303Z,0.40
2023-05-20T16:37:51.897Z,0.30
2023-05-20T16:40:19.573Z,0.50
2023-05-20T16:42:47.269Z,0.50
2023-05-20T16:45:15.591Z,0.50
2023-05-20T16:47:43.380Z,0.50
2023-05-20T16:50:11.539Z,0.70
2023-05-20T16:52:39.243Z,0.60
2023-05-20T16:55:08.237Z,0.70
2023-05-20T16:57:36.280Z,0.70
2023-05-20T17:00:11.368Z,0.60
2023-05-20T17:02:39.137Z,0.70
2023-05-20T17:05:07.209Z,0.70
2023-05-20T17:07:35.866Z,0.40
2023-05-20T17:10:03.819Z,0.50
2023-05-20T17:12:31.538Z,0.50
2023-05-20T17:14:59.152Z,0.60
2023-05-20T17:17:26.845Z,0.30
2023-05-20T17:19:54.804Z,0.50
2023-05-20T17:22:22.452Z,0.60
2023-05-20T17:24:50.406Z,0.50
2023-05-20T17:27:18.053Z,0.60
2023-05-20T17:29:45.847Z,0.50
2023-05-20T17:32:13.484Z,0.60
2023-05-20T17:34:41.209Z,0.60
2023-05-20T17:37:08.919Z,0.70
2023-05-20T17:39:36.617Z,0.70
2023-05-20T17:42:04.371Z,0.70
2023-05-20T17:44:31.998Z,0.50
2023-05-20T17:46:59.652Z,0.70
2023-05-20T17:49:27.322Z,0.70
2023-05-20T17:51:54.931Z,0.80
2023-05-20T17:54:22.563Z,0.70
2023-05-20T17:56:50.981Z,0.80
2023-05-20T17:59:18.598Z,0.80
2023-05-20T18:01:46.574Z,0.80
2023-05-20T18:04:14.247Z,0.80
2023-05-20T18:06:42.745Z,0.90
2023-05-20T18:09:10.395Z,0.80
2023-05-20T18:11:38.975Z,0.90
2023-05-20T18:14:06.914Z,0.80
2023-05-20T18:16:34.693Z,0.80
2023-05-20T18:19:02.969Z,0.90
2023-05-20T18:21:31.147Z,0.80
2023-05-20T18:23:58.784Z,1.00
2023-05-20T18:26:27.078Z,0.90
2023-05-20T18:28:54.699Z,1.00
2023-05-20T18:31:22.406Z,1.00
2023-05-20T18:33:50.378Z,0.90
2023-05-20T18:36:18.070Z,1.00
2023-05-20T18:38:46.341Z,1.00
2023-05-20T18:41:13.983Z,1.00
2023-05-20T18:43:41.751Z,1.00
2023-05-20T18:46:09.503Z,1.00
2023-05-20T18:48:37.146Z,1.10
2023-05-20T18:51:04.793Z,1.10
2023-05-20T18:53:32.429Z,1.20
2023-05-20T18:56:02.946Z,1.00
2023-05-20T18:58:30.586Z,1.00
2023-05-20T19:00:58.572Z,1.20
2023-05-20T19:03:26.680Z,1.20
2023-05-20T19:05:54.357Z,1.20
2023-05-20T19:08:23.136Z,1.30
2023-05-20T19:10:50.883Z,1.10
2023-05-20T19:13:18.573Z,1.30
2023-05-20T19:15:46.257Z,1.20
2023-05-20T19:18:14.056Z,1.00
2023-05-20T19:20:41.656Z,1.10
2023-05-20T19:23:09.366Z,1.40
2023-05-20T19:25:37.289Z,1.10
2023-05-20T19:28:05.638Z,1.20
2023-05-20T19:30:33.527Z,1.10
2023-05-20T19:33:04.514Z,1.10
2023-05-20T19:35:33.165Z,1.30
2023-05-20T19:38:01.086Z,1.40
2023-05-20T19:40:28.708Z,1.20
2023-05-20T19:42:56.361Z,1.20
2023-05-20T19:45:24.030Z,1.30
2023-05-20T19:47:51.923Z,1.30
2023-05-20T19:50:19.807Z,1.30
2023-05-20T19:52:47.419Z,1.20
2023-05-20T19:55:15.219Z,1.30
2023-05-20T19:57:46.395Z,1.30
2023-05-20T20:00:14.177Z,1.30
2023-05-20T20:02:41.872Z,1.10
2023-05-20T20:05:09.784Z,1.20
2023-05-20T20:07:37.836Z,1.10
2023-05-20T20:10:06.207Z,1.40
2023-05-20T20:12:33.942Z,1.40
2023-05-20T20:15:01.882Z,1.30
2023-05-20T20:17:30.202Z,1.40
2023-05-20T20:19:58.749Z,1.40
2023-05-20T20:22:26.428Z,1.40
2023-05-20T20:24:54.062Z,1.40
2023-05-20T20:27:23.586Z,1.00
2023-05-20T20:29:51.459Z,1.10
2023-05-20T20:32:19.155Z,1.20
2023-05-20T20:34:46.876Z,1.30
2023-05-20T20:37:15.125Z,1.30
2023-05-20T20:39:46.700Z,1.00
2023-05-20T20:42:14.721Z,1.30
2023-05-20T20:44:42.648Z,1.40
2023-05-20T20:47:10.350Z,1.30
2023-05-20T20:49:38.071Z,1.10
2023-05-20T20:52:06.563Z,1.20
2023-05-20T20:54:34.248Z,1.50
2023-05-20T20:57:03.916Z,1.30
2023-05-20T20:59:31.637Z,1.30
2023-05-20T21:01:59.348Z,1.30
2023-05-20T21:04:27.841Z,1.30
2023-05-20T21:06:55.861Z,1.40
2023-05-20T21:09:23.554Z,1.40
2023-05-20T21:11:51.209Z,1.30
2023-05-20T21:14:18.881Z,1.30
2023-05-20T21:16:46.525Z,1.40
2023-05-20T21:19:14.242Z,1.40
2023-05-20T21:21:42.041Z,1.30
2023-05-20T21:24:09.792Z,1.50
2023-05-20T21:26:37.394Z,1.40
2023-05-20T21:29:06.210Z,1.30
2023-05-20T21:31:33.853Z,1.40
2023-05-20T21:34:01.488Z,1.40
2023-05-20T21:36:29.113Z,1.30
2023-05-20T21:38:56.751Z,1.40
2023-05-20T21:41:24.448Z,1.30
2023-05-20T21:43:52.054Z,1.30
2023-05-20T21:46:19.775Z,1.40
2023-05-20T21:48:47.475Z,1.30
2023-05-20T21:51:15.761Z,1.40
2023-05-20T21:53:43.637Z,1.60
2023-05-20T21:56:11.350Z,1.40
2023-05-20T21:58:41.088Z,1.50
2023-05-20T22:01:12.338Z,1.60
2023-05-20T22:03:40.338Z,1.50
2023-05-20T22:06:09.030Z,1.40
2023-05-20T22:08:36.709Z,1.40
2023-05-20T22:11:07.946Z,1.30
2023-05-20T22:13:36.074Z,1.50
2023-05-20T22:16:04.589Z,1.40
2023-05-20T22:18:32.489Z,1.40
2023-05-20T22:21:00.963Z,1.50
2023-05-20T22:23:29.175Z,1.50
2023-05-20T22:25:57.225Z,1.50
2023-05-20T22:28:26.098Z,1.30
2023-05-20T22:30:54.588Z,1.30
2023-05-20T22:33:22.686Z,1.20
2023-05-20T22:35:51.252Z,1.30
2023-05-20T22:38:19.635Z,1.40
2023-05-20T22:40:47.317Z,1.50
2023-05-20T22:43:16.301Z,1.40
2023-05-20T22:45:44.106Z,1.30
2023-05-20T22:48:12.330Z,1.10
2023-05-20T22:50:40.101Z,1.50
2023-05-20T22:53:07.769Z,1.50
2023-05-20T22:55:38.576Z,1.50
2023-05-20T22:58:07.903Z,1.50
2023-05-20T23:00:35.535Z,1.50
2023-05-20T23:03:03.177Z,1.20
2023-05-20T23:05:31.307Z,1.50
2023-05-20T23:07:59.261Z,1.50
2023-05-20T23:10:26.885Z,1.50
2023-05-20T23:12:54.531Z,1.40
2023-05-20T23:15:25.015Z,1.30
2023-05-20T23:17:52.649Z,1.50
2023-05-20T23:20:22.191Z,1.50
2023-05-20T23:22:50.449Z,1.50
2023-05-20T23:25:18.148Z,1.50
2023-05-20T23:27:45.843Z,1.40
2023-05-20T23:30:13.494Z,1.10
2023-05-20T23:32:41.221Z,1.50
2023-05-20T23:35:11.340Z,1.50
2023-05-20T23:37:40.768Z,1.50
2023-05-20T23:40:12.060Z,1.30
2023-05-20T23:42:39.960Z,1.50
2023-05-20T23:45:08.051Z,1.40
2023-05-20T23:47:36.538Z,1.50
2023-05-20T23:50:04.823Z,1.60
2023-05-20T23:52:32.452Z,1.40
2023-05-20T23:55:00.423Z,1.60
2023-05-20T23:57:28.192Z,1.40
2023-05-20T23:59:55.844Z,1.50
